createdAt,value
2022-08-19T00:00:01.189Z,17.48
2022-08-19T00:05:01.414Z,17.43
2022-08-19T00:10:01.957Z,17.39
2022-08-19T00:15:01.371Z,17.29
2022-08-19T00:20:01.975Z,17.21
2022-08-19T00:25:02.125Z,17.16
2022-08-19T00:30:01.721Z,17.09
2022-08-19T00:35:02.052Z,17.05
2022-08-19T00:40:01.674Z,17.05
2022-08-19T00:45:01.436Z,17.08
2022-08-19T00:50:01.858Z,17.05
2022-08-19T00:55:02.031Z,17.03
2022-08-19T01:00:03.127Z,16.98
2022-08-19T01:05:01.439Z,17.07
2022-08-19T01:10:01.829Z,17
2022-08-19T01:15:01.232Z,16.96
2022-08-19T01:20:02.045Z,16.93
2022-08-19T01:25:01.762Z,16.89
2022-08-19T01:30:01.426Z,16.82
2022-08-19T01:35:02.070Z,16.77
2022-08-19T01:40:01.294Z,16.74
2022-08-19T01:45:01.566Z,16.74
2022-08-19T01:50:01.999Z,16.81
2022-08-19T01:55:01.128Z,16.87
2022-08-19T02:00:02.002Z,16.89
2022-08-19T02:05:01.681Z,16.84
2022-08-19T02:10:01.806Z,16.79
2022-08-19T02:15:01.655Z,16.78
2022-08-19T02:20:01.366Z,16.74
2022-08-19T02:25:01.471Z,16.7
2022-08-19T02:30:01.699Z,16.63
2022-08-19T02:35:02.089Z,16.6
2022-08-19T02:40:01.692Z,16.61
2022-08-19T02:45:01.158Z,16.61
2022-08-19T02:50:01.253Z,16.6
2022-08-19T02:55:01.811Z,16.65
2022-08-19T03:00:01.889Z,16.7
2022-08-19T03:05:01.250Z,16.7
2022-08-19T03:10:01.325Z,16.67
2022-08-19T03:15:01.940Z,16.67
2022-08-19T03:20:01.453Z,16.63
2022-08-19T03:25:01.834Z,16.61
2022-08-19T03:30:02.036Z,16.54
2022-08-19T03:35:01.811Z,16.48
2022-08-19T03:40:01.312Z,16.45
2022-08-19T03:45:01.660Z,16.44
2022-08-19T03:50:01.488Z,16.41
2022-08-19T03:55:01.878Z,16.36
2022-08-19T04:00:04.139Z,16.57
2022-08-19T04:05:01.870Z,16.33
2022-08-19T04:10:01.853Z,16.32
2022-08-19T04:15:01.556Z,16.3
2022-08-19T04:20:01.637Z,16.36
2022-08-19T04:25:01.887Z,16.24
2022-08-19T04:30:01.838Z,16.37
2022-08-19T04:35:16.769Z,16.16
2022-08-19T04:40:02.534Z,16.2
2022-08-19T04:45:01.599Z,16.21
2022-08-19T04:50:02.049Z,16.37
2022-08-19T04:55:01.936Z,16.4
2022-08-19T05:00:01.188Z,16.43
2022-08-19T05:05:01.344Z,16.49
2022-08-19T05:10:01.552Z,16.6
2022-08-19T05:15:01.454Z,16.74
2022-08-19T05:20:01.975Z,16.79
2022-08-19T05:25:12.569Z,16.94
2022-08-19T05:30:01.163Z,17.1
2022-08-19T05:35:01.164Z,17.04
2022-08-19T05:40:01.581Z,17.18
2022-08-19T05:45:01.197Z,17.21
2022-08-19T05:50:01.982Z,17.47
2022-08-19T05:55:01.592Z,17.32
2022-08-19T06:00:01.846Z,17.32
2022-08-19T06:05:02.121Z,17.38
2022-08-19T06:10:01.743Z,17.74
2022-08-19T06:15:02.252Z,17.58
2022-08-19T06:20:01.208Z,17.76
2022-08-19T06:25:01.819Z,17.76
2022-08-19T06:30:01.784Z,17.95
2022-08-19T06:35:02.099Z,18.1
2022-08-19T06:40:01.789Z,18.28
2022-08-19T06:45:01.258Z,18.54
2022-08-19T06:50:03.165Z,18.69
2022-08-19T06:55:01.380Z,18.96
2022-08-19T07:00:02.025Z,19.12
2022-08-19T07:05:01.323Z,19.25
2022-08-19T07:10:03.943Z,19.37
2022-08-19T07:15:01.416Z,19.56
2022-08-19T07:20:05.033Z,19.72
2022-08-19T07:25:01.419Z,19.97
2022-08-19T07:30:01.307Z,20.28
2022-08-19T07:35:01.828Z,20.72
2022-08-19T07:40:02.205Z,21.2
2022-08-19T07:45:01.655Z,21.37
2022-08-19T07:50:01.211Z,21.46
2022-08-19T07:55:01.765Z,21.78
2022-08-19T08:00:01.273Z,22.25
2022-08-19T08:05:02.073Z,22.37
2022-08-19T08:10:03.325Z,22.64
2022-08-19T08:15:01.768Z,22.54
2022-08-19T08:20:01.297Z,22.87
2022-08-19T08:25:01.235Z,23.15
2022-08-19T08:30:02.907Z,23.14
2022-08-19T08:35:01.872Z,22.88
2022-08-19T08:40:01.332Z,23.09
2022-08-19T08:45:01.501Z,23.01
2022-08-19T08:50:01.198Z,22.92
2022-08-19T08:55:01.722Z,23.27
2022-08-19T09:00:01.316Z,23.35
2022-08-19T09:05:02.377Z,23.88
2022-08-19T09:10:02.069Z,23.41
2022-08-19T09:15:01.286Z,23.82
2022-08-19T09:20:01.602Z,24.18
2022-08-19T09:25:01.315Z,24.2
2022-08-19T09:30:01.760Z,24.03
2022-08-19T09:35:01.657Z,24.47
2022-08-19T09:40:01.282Z,24.15
2022-08-19T09:45:01.953Z,23.83
2022-08-19T09:50:01.530Z,24.09
2022-08-19T09:55:02.113Z,24.35
2022-08-19T10:00:01.448Z,24.57
2022-08-19T10:05:01.301Z,24.84
2022-08-19T10:10:01.973Z,24.99
2022-08-19T10:15:01.674Z,24.48
2022-08-19T10:20:02.138Z,23.77
2022-08-19T10:25:01.537Z,24.44
2022-08-19T10:30:01.558Z,24.78
2022-08-19T10:35:01.997Z,24.76
2022-08-19T10:40:01.555Z,24.69
2022-08-19T10:45:01.854Z,24.23
2022-08-19T10:50:01.168Z,24.39
2022-08-19T10:55:05.165Z,24.33
2022-08-19T11:00:01.304Z,24.59
2022-08-19T11:05:05.008Z,24.44
2022-08-19T11:10:02.139Z,24.3
2022-08-19T11:15:01.567Z,24.19
2022-08-19T11:20:01.325Z,24.75
2022-08-19T11:25:02.077Z,25.17
2022-08-19T11:30:01.969Z,24.74
2022-08-19T11:35:01.992Z,25.03
2022-08-19T11:40:01.917Z,25.1
2022-08-19T11:45:01.837Z,25.2
2022-08-19T11:50:01.213Z,25.27
2022-08-19T11:55:01.790Z,24.77
2022-08-19T12:00:02.004Z,24.71
2022-08-19T12:05:02.007Z,24.77
2022-08-19T12:10:01.853Z,25.08
2022-08-19T12:15:01.293Z,24.8
2022-08-19T12:20:01.791Z,24.8
2022-08-19T12:25:01.604Z,24.8
2022-08-19T12:30:01.597Z,25.17
2022-08-19T12:35:02.030Z,24.77
2022-08-19T12:40:02.157Z,24.79
2022-08-19T12:45:01.883Z,24.69
2022-08-19T12:50:04.293Z,24.9
2022-08-19T12:55:01.507Z,24.77
2022-08-19T13:00:02.099Z,25.01
2022-08-19T13:05:01.478Z,25.16
2022-08-19T13:10:02.109Z,25.32
2022-08-19T13:15:01.530Z,25.32
2022-08-19T13:20:01.871Z,25.38
2022-08-19T13:25:01.275Z,25.46
2022-08-19T13:30:01.437Z,25.29
2022-08-19T13:35:01.662Z,25.5
2022-08-19T13:40:01.844Z,25.65
2022-08-19T13:45:02.177Z,25.78
2022-08-19T13:50:01.405Z,25.8
2022-08-19T13:55:01.441Z,25.78
2022-08-19T14:00:01.544Z,25.99
2022-08-19T14:05:02.148Z,25.96
2022-08-19T14:10:01.592Z,25.71
2022-08-19T14:15:02.135Z,25.65
2022-08-19T14:20:10.204Z,25.82
2022-08-19T14:25:01.778Z,25.95
2022-08-19T14:30:01.895Z,25.89
2022-08-19T14:35:01.463Z,25.94
2022-08-19T14:40:01.265Z,26.05
2022-08-19T14:45:01.651Z,26.11
2022-08-19T14:50:01.251Z,25.88
2022-08-19T14:55:01.735Z,26.04
2022-08-19T15:00:02.179Z,26.1
2022-08-19T15:05:01.436Z,25.97
2022-08-19T15:10:01.431Z,25.83
2022-08-19T15:15:01.531Z,25.6
2022-08-19T15:20:01.598Z,25.53
2022-08-19T15:25:01.472Z,25.67
2022-08-19T15:30:01.771Z,25.73
2022-08-19T15:35:01.206Z,25.79
2022-08-19T15:40:01.524Z,25.71
2022-08-19T15:45:02.532Z,25.56
2022-08-19T15:50:02.165Z,25.46
2022-08-19T15:55:01.387Z,25.39
2022-08-19T16:00:02.901Z,25.25
2022-08-19T16:05:01.584Z,25.29
2022-08-19T16:10:04.110Z,25.12
2022-08-19T16:15:01.740Z,25.06
2022-08-19T16:20:01.269Z,24.91
2022-08-19T16:25:01.587Z,24.83
2022-08-19T16:30:01.302Z,24.88
2022-08-19T16:35:06.364Z,24.93
2022-08-19T16:40:01.462Z,24.84
2022-08-19T16:45:01.954Z,24.69
2022-08-19T16:50:01.568Z,24.59
2022-08-19T16:55:01.340Z,24.55
2022-08-19T17:00:01.571Z,24.68
2022-08-19T17:05:01.717Z,24.91
2022-08-19T17:10:01.328Z,24.99
2022-08-19T17:15:01.395Z,24.85
2022-08-19T17:20:01.339Z,24.75
2022-08-19T17:25:01.767Z,24.5
2022-08-19T17:30:01.768Z,24.27
2022-08-19T17:35:01.893Z,24.02
2022-08-19T17:40:02.027Z,23.76
2022-08-19T17:45:01.861Z,23.64
2022-08-19T17:50:01.184Z,23.32
2022-08-19T17:55:02.031Z,23.16
2022-08-19T18:00:03.298Z,23.07
2022-08-19T18:05:01.621Z,22.95
2022-08-19T18:10:02.144Z,22.86
2022-08-19T18:15:02.063Z,22.61
2022-08-19T18:20:01.327Z,22.51
2022-08-19T18:25:02.083Z,22.42
2022-08-19T18:30:01.798Z,22.25
2022-08-19T18:35:01.829Z,22.09
2022-08-19T18:40:02.250Z,21.96
2022-08-19T18:45:01.644Z,21.85
2022-08-19T18:50:02.093Z,21.69
2022-08-19T18:55:01.876Z,21.59
2022-08-19T19:00:01.623Z,21.51
2022-08-19T19:05:05.167Z,21.4
2022-08-19T19:10:01.676Z,21.32
2022-08-19T19:15:01.840Z,21.23
2022-08-19T19:20:01.433Z,21.01
2022-08-19T19:25:01.600Z,20.88
2022-08-19T19:30:01.511Z,20.76
2022-08-19T19:35:01.466Z,20.63
2022-08-19T19:40:01.940Z,20.55
2022-08-19T19:45:01.707Z,20.49
2022-08-19T19:50:14.240Z,20.51
2022-08-19T19:55:01.756Z,20.49
2022-08-19T20:00:01.587Z,20.47
2022-08-19T20:05:01.629Z,20.39
2022-08-19T20:10:02.133Z,20.32
2022-08-19T20:15:01.887Z,20.27
2022-08-19T20:20:01.376Z,20.19
2022-08-19T20:25:01.657Z,20.22
2022-08-19T20:30:02.099Z,20.44
2022-08-19T20:35:02.096Z,20.64
2022-08-19T20:40:01.917Z,20.81
2022-08-19T20:45:01.874Z,20.91
2022-08-19T20:50:02.091Z,20.99
2022-08-19T20:55:01.920Z,21.01
2022-08-19T21:00:01.745Z,20.99
2022-08-19T21:05:01.894Z,20.98
2022-08-19T21:10:01.795Z,20.96
2022-08-19T21:15:01.483Z,20.92
2022-08-19T21:20:01.845Z,20.9
2022-08-19T21:25:01.744Z,20.87
2022-08-19T21:30:01.726Z,20.87
2022-08-19T21:35:01.845Z,20.86
2022-08-19T21:40:02.029Z,20.81
2022-08-19T21:45:01.268Z,20.77
2022-08-19T21:50:02.014Z,20.74
2022-08-19T21:55:01.833Z,20.7
2022-08-19T22:00:01.515Z,20.62
2022-08-19T22:05:01.312Z,20.58
2022-08-19T22:10:01.157Z,20.55
2022-08-19T22:15:01.901Z,20.48
2022-08-19T22:20:01.164Z,20.36
2022-08-19T22:25:01.206Z,20.3
2022-08-19T22:30:01.961Z,20.21
2022-08-19T22:35:01.599Z,20.15
2022-08-19T22:40:01.764Z,20.09
2022-08-19T22:45:01.773Z,20.01
2022-08-19T22:50:01.831Z,19.97
2022-08-19T22:55:01.820Z,19.94
2022-08-19T23:00:01.630Z,19.88
2022-08-19T23:05:01.405Z,19.86
2022-08-19T23:10:01.507Z,19.85
2022-08-19T23:15:01.290Z,19.79
2022-08-19T23:20:01.796Z,19.77
2022-08-19T23:25:01.210Z,19.72
2022-08-19T23:30:01.497Z,19.7
2022-08-19T23:35:01.824Z,19.62
2022-08-19T23:40:02.038Z,19.63
2022-08-19T23:45:01.823Z,19.66
2022-08-19T23:50:01.834Z,19.62
2022-08-19T23:55:02.054Z,19.59
